sensor_id;sensor_type;location;lat;lon;timestamp;pressure;altitude;pressure_sealevel;temperature;humidity
63194;BME280;49289;51.670;5.624;2023-07-31T00:00:18;101186.05;;;22.23;94.90
63194;BME280;49289;51.670;5.624;2023-07-31T00:02:05;101152.13;;;22.39;92.42
63194;BME280;49289;51.670;5.624;2023-07-31T00:03:52;101185.94;;;21.50;96.87
63194;BME280;49289;51.670;5.624;2023-07-31T00:05:39;101182.55;;;21.78;97.04
63194;BME280;49289;51.670;5.624;2023-07-31T00:07:28;101156.19;;;22.14;93.87
63194;BME280;49289;51.670;5.624;2023-07-31T00:09:16;101152.92;;;21.37;97.58
63194;BME280;49289;51.670;5.624;2023-07-31T00:11:04;101182.52;;;22.12;93.97
63194;BME280;49289;51.670;5.624;2023-07-31T00:12:51;101184.94;;;22.29;93.46
63194;BME280;49289;51.670;5.624;2023-07-31T00:14:38;101186.69;;;22.21;93.77
63194;BME280;49289;51.670;5.624;2023-07-31T00:16:25;101181.10;;;22.11;94.28
63194;BME280;49289;51.670;5.624;2023-07-31T00:18:12;101178.69;;;22.58;91.81
63194;BME280;49289;51.670;5.624;2023-07-31T00:20:00;101182.25;;;22.21;90.77
63194;BME280;49289;51.670;5.624;2023-07-31T00:21:47;101175.58;;;22.13;93.21
63194;BME280;49289;51.670;5.624;2023-07-31T00:23:36;101173.88;;;22.37;92.75
63194;BME280;49289;51.670;5.624;2023-07-31T00:25:24;101174.77;;;22.57;91.14
63194;BME280;49289;51.670;5.624;2023-07-31T00:27:11;101176.77;;;22.67;89.07
63194;BME280;49289;51.670;5.624;2023-07-31T00:28:58;101176.04;;;22.42;90.04
63194;BME280;49289;51.670;5.624;2023-07-31T00:30:46;101178.63;;;22.00;92.45
63194;BME280;49289;51.670;5.624;2023-07-31T00:32:34;101149.72;;;22.00;92.02
63194;BME280;49289;51.670;5.624;2023-07-31T00:34:23;101168.80;;;22.28;92.69
63194;BME280;49289;51.670;5.624;2023-07-31T00:36:11;101144.23;;;22.64;89.92
63194;BME280;49289;51.670;5.624;2023-07-31T00:37:59;101162.50;;;22.38;90.34
63194;BME280;49289;51.670;5.624;2023-07-31T00:39:47;101163.19;;;22.32;90.65
63194;BME280;49289;51.670;5.624;2023-07-31T00:41:34;101160.45;;;22.10;92.35
63194;BME280;49289;51.670;5.624;2023-07-31T00:43:21;101167.55;;;22.16;92.09
63194;BME280;49289;51.670;5.624;2023-07-31T00:45:09;101166.09;;;22.40;90.63
63194;BME280;49289;51.670;5.624;2023-07-31T00:46:57;101144.28;;;22.01;90.48
63194;BME280;49289;51.670;5.624;2023-07-31T00:48:45;101152.16;;;21.86;92.18
63194;BME280;49289;51.670;5.624;2023-07-31T00:50:32;101179.01;;;22.14;91.53
63194;BME280;49289;51.670;5.624;2023-07-31T00:52:19;101173.00;;;22.10;92.17
63194;BME280;49289;51.670;5.624;2023-07-31T00:54:08;101162.94;;;22.35;91.65
63194;BME280;49289;51.670;5.624;2023-07-31T00:55:55;101168.11;;;21.99;91.68
63194;BME280;49289;51.670;5.624;2023-07-31T00:57:42;101159.69;;;22.68;89.13
63194;BME280;49289;51.670;5.624;2023-07-31T00:59:29;101157.67;;;22.32;90.10
63194;BME280;49289;51.670;5.624;2023-07-31T01:01:16;101156.91;;;22.38;89.93
63194;BME280;49289;51.670;5.624;2023-07-31T01:03:03;101158.36;;;22.03;90.13
63194;BME280;49289;51.670;5.624;2023-07-31T01:04:52;101161.34;;;21.92;92.46
63194;BME280;49289;51.670;5.624;2023-07-31T01:06:43;101154.59;;;22.30;90.23
63194;BME280;49289;51.670;5.624;2023-07-31T01:08:31;101146.73;;;22.81;88.05
63194;BME280;49289;51.670;5.624;2023-07-31T01:10:19;101156.77;;;22.96;85.85
63194;BME280;49289;51.670;5.624;2023-07-31T01:12:06;101152.75;;;22.03;88.19
63194;BME280;49289;51.670;5.624;2023-07-31T01:13:54;101150.95;;;22.49;88.66
63194;BME280;49289;51.670;5.624;2023-07-31T01:15:42;101129.44;;;22.03;88.92
63194;BME280;49289;51.670;5.624;2023-07-31T01:17:29;101150.83;;;21.85;91.76
63194;BME280;49289;51.670;5.624;2023-07-31T01:19:18;101146.63;;;22.34;90.28
63194;BME280;49289;51.670;5.624;2023-07-31T01:21:06;101141.11;;;22.44;89.40
63194;BME280;49289;51.670;5.624;2023-07-31T01:23:08;101147.69;;;22.75;87.35
63194;BME280;49289;51.670;5.624;2023-07-31T01:24:52;101151.78;;;22.75;87.10
63194;BME280;49289;51.670;5.624;2023-07-31T01:26:38;101125.83;;;22.79;85.83
63194;BME280;49289;51.670;5.624;2023-07-31T01:28:27;101152.43;;;22.24;88.85
63194;BME280;49289;51.670;5.624;2023-07-31T01:30:14;101145.20;;;23.03;85.26
63194;BME280;49289;51.670;5.624;2023-07-31T01:32:02;101113.16;;;22.70;85.21
63194;BME280;49289;51.670;5.624;2023-07-31T01:33:53;101146.69;;;22.49;87.25
63194;BME280;49289;51.670;5.624;2023-07-31T01:35:41;101159.42;;;22.34;88.54
63194;BME280;49289;51.670;5.624;2023-07-31T01:37:27;101144.35;;;22.47;86.66
63194;BME280;49289;51.670;5.624;2023-07-31T01:39:15;101146.42;;;23.02;85.31
63194;BME280;49289;51.670;5.624;2023-07-31T01:41:03;101143.70;;;22.37;86.14
63194;BME280;49289;51.670;5.624;2023-07-31T01:42:50;101149.58;;;21.84;89.65
63194;BME280;49289;51.670;5.624;2023-07-31T01:44:37;101141.48;;;22.13;90.06
63194;BME280;49289;51.670;5.624;2023-07-31T01:46:25;101119.59;;;22.08;88.76
63194;BME280;49289;51.670;5.624;2023-07-31T01:48:13;101143.05;;;22.19;88.37
63194;BME280;49289;51.670;5.624;2023-07-31T01:50:01;101141.03;;;22.00;88.87
63194;BME280;49289;51.670;5.624;2023-07-31T01:51:48;101142.81;;;22.24;87.34
63194;BME280;49289;51.670;5.624;2023-07-31T01:53:35;101136.38;;;22.14;87.94
63194;BME280;49289;51.670;5.624;2023-07-31T01:55:23;101134.05;;;22.75;85.66
63194;BME280;49289;51.670;5.624;2023-07-31T01:57:11;101135.17;;;22.69;85.21
63194;BME280;49289;51.670;5.624;2023-07-31T01:58:58;101112.95;;;22.55;84.76
63194;BME280;49289;51.670;5.624;2023-07-31T02:00:45;101132.57;;;22.38;84.87
63194;BME280;49289;51.670;5.624;2023-07-31T02:02:34;101125.78;;;22.40;86.14
63194;BME280;49289;51.670;5.624;2023-07-31T02:04:22;101122.30;;;22.66;84.65
63194;BME280;49289;51.670;5.624;2023-07-31T02:06:10;101130.92;;;22.30;85.92
63194;BME280;49289;51.670;5.624;2023-07-31T02:07:57;101106.56;;;22.37;85.85
63194;BME280;49289;51.670;5.624;2023-07-31T02:09:44;101130.22;;;22.05;86.59
63194;BME280;49289;51.670;5.624;2023-07-31T02:11:31;101131.00;;;21.81;88.13
63194;BME280;49289;51.670;5.624;2023-07-31T02:13:18;101123.44;;;22.09;87.19
63194;BME280;49289;51.670;5.624;2023-07-31T02:15:05;101117.14;;;22.28;85.77
63194;BME280;49289;51.670;5.624;2023-07-31T02:16:52;101116.28;;;22.34;85.82
63194;BME280;49289;51.670;5.624;2023-07-31T02:18:39;101112.03;;;22.28;86.17
63194;BME280;49289;51.670;5.624;2023-07-31T02:20:28;101108.57;;;22.05;85.95
63194;BME280;49289;51.670;5.624;2023-07-31T02:22:16;101104.77;;;21.93;86.38
63194;BME280;49289;51.670;5.624;2023-07-31T02:24:03;101107.53;;;22.26;85.75
63194;BME280;49289;51.670;5.624;2023-07-31T02:25:52;101101.36;;;22.42;84.24
63194;BME280;49289;51.670;5.624;2023-07-31T02:27:40;101101.00;;;22.54;83.44
63194;BME280;49289;51.670;5.624;2023-07-31T02:29:27;101100.38;;;22.38;82.88
63194;BME280;49289;51.670;5.624;2023-07-31T02:31:14;101103.35;;;22.16;82.96
63194;BME280;49289;51.670;5.624;2023-07-31T02:33:03;101106.07;;;22.60;82.78
63194;BME280;49289;51.670;5.624;2023-07-31T02:34:50;101077.13;;;22.44;82.51
63194;BME280;49289;51.670;5.624;2023-07-31T02:36:39;101096.52;;;22.68;81.49
63194;BME280;49289;51.670;5.624;2023-07-31T02:38:27;101100.94;;;22.23;81.97
63194;BME280;49289;51.670;5.624;2023-07-31T02:40:15;101099.64;;;22.64;82.02
63194;BME280;49289;51.670;5.624;2023-07-31T02:42:03;101099.52;;;22.42;82.02
63194;BME280;49289;51.670;5.624;2023-07-31T02:43:50;101105.72;;;22.93;80.25
63194;BME280;49289;51.670;5.624;2023-07-31T02:45:37;101091.33;;;21.93;82.46
63194;BME280;49289;51.670;5.624;2023-07-31T02:47:24;101089.81;;;21.95;84.80
63194;BME280;49289;51.670;5.624;2023-07-31T02:49:09;101089.80;;;22.52;81.60
63194;BME280;49289;51.670;5.624;2023-07-31T02:50:57;101084.56;;;22.45;81.47
63194;BME280;49289;51.670;5.624;2023-07-31T02:52:45;101090.24;;;22.48;81.48
63194;BME280;49289;51.670;5.624;2023-07-31T02:54:34;101085.76;;;22.34;81.75
63194;BME280;49289;51.670;5.624;2023-07-31T02:56:21;101078.14;;;22.08;82.89
63194;BME280;49289;51.670;5.624;2023-07-31T02:58:10;101079.86;;;21.99;82.27
63194;BME280;49289;51.670;5.624;2023-07-31T02:59:58;101081.91;;;22.43;81.65
63194;BME280;49289;51.670;5.624;2023-07-31T03:01:46;101088.48;;;22.70;80.05
63194;BME280;49289;51.670;5.624;2023-07-31T03:03:33;101085.02;;;22.55;79.62
63194;BME280;49289;51.670;5.624;2023-07-31T03:05:20;101083.63;;;22.51;78.93
63194;BME280;49289;51.670;5.624;2023-07-31T03:07:09;101083.47;;;22.42;80.67
63194;BME280;49289;51.670;5.624;2023-07-31T03:08:57;101060.91;;;22.60;78.97
63194;BME280;49289;51.670;5.624;2023-07-31T03:10:44;101084.06;;;22.46;79.30
63194;BME280;49289;51.670;5.624;2023-07-31T03:12:31;101082.45;;;21.97;81.54
63194;BME280;49289;51.670;5.624;2023-07-31T03:14:18;101077.67;;;22.21;80.77
63194;BME280;49289;51.670;5.624;2023-07-31T03:16:06;101085.31;;;22.68;79.39
63194;BME280;49289;51.670;5.624;2023-07-31T03:17:54;101088.47;;;22.52;79.48
63194;BME280;49289;51.670;5.624;2023-07-31T03:19:44;101082.05;;;22.11;80.19
63194;BME280;49289;51.670;5.624;2023-07-31T03:21:32;101080.38;;;22.14;80.91
63194;BME280;49289;51.670;5.624;2023-07-31T03:23:20;101089.25;;;22.10;81.00
63194;BME280;49289;51.670;5.624;2023-07-31T03:25:07;101087.46;;;22.26;80.08
63194;BME280;49289;51.670;5.624;2023-07-31T03:26:54;101089.96;;;22.29;79.38
63194;BME280;49289;51.670;5.624;2023-07-31T03:28:41;101085.31;;;21.77;81.03
63194;BME280;49289;51.670;5.624;2023-07-31T03:30:28;101082.34;;;22.22;80.44
63194;BME280;49289;51.670;5.624;2023-07-31T03:32:15;101081.88;;;22.41;79.07
63194;BME280;49289;51.670;5.624;2023-07-31T03:34:03;101061.06;;;22.46;78.20
63194;BME280;49289;51.670;5.624;2023-07-31T03:35:52;101077.43;;;22.50;77.26
63194;BME280;49289;51.670;5.624;2023-07-31T03:37:40;101074.37;;;22.64;76.75
63194;BME280;49289;51.670;5.624;2023-07-31T03:39:28;101069.66;;;22.69;77.50
63194;BME280;49289;51.670;5.624;2023-07-31T03:41:15;101075.12;;;22.61;76.48
63194;BME280;49289;51.670;5.624;2023-07-31T03:43:02;101060.84;;;22.34;79.02
63194;BME280;49289;51.670;5.624;2023-07-31T03:44:49;101057.95;;;22.50;77.41
63194;BME280;49289;51.670;5.624;2023-07-31T03:46:37;101056.06;;;22.57;77.34
63194;BME280;49289;51.670;5.624;2023-07-31T03:48:26;101029.22;;;22.83;74.90
63194;BME280;49289;51.670;5.624;2023-07-31T03:50:13;101060.57;;;22.82;75.31
63194;BME280;49289;51.670;5.624;2023-07-31T03:52:02;101056.50;;;22.33;76.70
63194;BME280;49289;51.670;5.624;2023-07-31T03:53:49;101058.02;;;22.94;75.33
63194;BME280;49289;51.670;5.624;2023-07-31T03:55:36;101033.66;;;22.73;74.61
63194;BME280;49289;51.670;5.624;2023-07-31T03:57:23;101025.13;;;22.73;74.73
63194;BME280;49289;51.670;5.624;2023-07-31T03:59:10;101030.50;;;22.53;76.51
63194;BME280;49289;51.670;5.624;2023-07-31T04:00:58;101052.14;;;23.10;75.07
63194;BME280;49289;51.670;5.624;2023-07-31T04:02:46;101047.35;;;22.82;74.61
63194;BME280;49289;51.670;5.624;2023-07-31T04:04:35;101048.79;;;22.75;75.40
63194;BME280;49289;51.670;5.624;2023-07-31T04:06:23;101041.73;;;22.88;75.04
63194;BME280;49289;51.670;5.624;2023-07-31T04:08:11;101036.91;;;22.95;74.48
63194;BME280;49289;51.670;5.624;2023-07-31T04:09:59;101034.61;;;23.01;73.17
63194;BME280;49289;51.670;5.624;2023-07-31T04:11:47;101040.58;;;22.65;75.82
63194;BME280;49289;51.670;5.624;2023-07-31T04:13:35;101040.69;;;22.74;75.97
63194;BME280;49289;51.670;5.624;2023-07-31T04:15:22;101018.41;;;22.77;75.43
63194;BME280;49289;51.670;5.624;2023-07-31T04:17:09;101037.14;;;22.79;76.08
63194;BME280;49289;51.670;5.624;2023-07-31T04:18:57;101029.00;;;22.52;76.90
63194;BME280;49289;51.670;5.624;2023-07-31T04:20:46;101011.97;;;22.95;74.90
63194;BME280;49289;51.670;5.624;2023-07-31T04:22:34;101035.33;;;22.56;76.61
63194;BME280;49289;51.670;5.624;2023-07-31T04:24:21;101032.92;;;23.06;75.13
63194;BME280;49289;51.670;5.624;2023-07-31T04:26:08;101025.78;;;23.09;74.78
63194;BME280;49289;51.670;5.624;2023-07-31T04:27:55;101030.53;;;23.25;73.92
63194;BME280;49289;51.670;5.624;2023-07-31T04:29:42;101019.63;;;23.36;73.16
63194;BME280;49289;51.670;5.624;2023-07-31T04:31:30;101021.92;;;22.85;74.44
63194;BME280;49289;51.670;5.624;2023-07-31T04:33:17;101021.41;;;22.87;74.32
63194;BME280;49289;51.670;5.624;2023-07-31T04:35:05;101030.40;;;22.94;75.09
63194;BME280;49289;51.670;5.624;2023-07-31T04:36:53;101023.92;;;22.98;74.04
63194;BME280;49289;51.670;5.624;2023-07-31T04:38:41;101022.53;;;23.08;74.02
63194;BME280;49289;51.670;5.624;2023-07-31T04:40:30;101024.30;;;23.17;74.57
63194;BME280;49289;51.670;5.624;2023-07-31T04:42:18;101025.30;;;22.93;75.74
63194;BME280;49289;51.670;5.624;2023-07-31T04:44:06;101025.12;;;22.94;75.98
63194;BME280;49289;51.670;5.624;2023-07-31T04:45:54;101023.72;;;22.54;76.94
63194;BME280;49289;51.670;5.624;2023-07-31T04:47:43;101019.17;;;22.63;77.43
63194;BME280;49289;51.670;5.624;2023-07-31T04:49:31;101002.69;;;23.07;75.79
63194;BME280;49289;51.670;5.624;2023-07-31T04:51:19;100993.40;;;23.08;75.43
63194;BME280;49289;51.670;5.624;2023-07-31T04:53:07;101001.22;;;23.34;75.70
63194;BME280;49289;51.670;5.624;2023-07-31T04:54:54;101010.36;;;22.62;78.00
63194;BME280;49289;51.670;5.624;2023-07-31T04:56:41;101015.27;;;22.53;78.42
63194;BME280;49289;51.670;5.624;2023-07-31T04:58:28;101011.88;;;22.27;79.93
63194;BME280;49289;51.670;5.624;2023-07-31T05:00:16;101012.10;;;22.52;80.69
63194;BME280;49289;51.670;5.624;2023-07-31T05:02:03;101011.55;;;22.95;78.58
63194;BME280;49289;51.670;5.624;2023-07-31T05:03:50;101008.72;;;22.74;79.90
63194;BME280;49289;51.670;5.624;2023-07-31T05:05:38;101002.91;;;22.87;79.64
63194;BME280;49289;51.670;5.624;2023-07-31T05:07:27;100995.39;;;23.19;77.93
63194;BME280;49289;51.670;5.624;2023-07-31T05:09:15;100992.45;;;23.43;76.78
63194;BME280;49289;51.670;5.624;2023-07-31T05:11:02;100989.53;;;23.38;77.14
63194;BME280;49289;51.670;5.624;2023-07-31T05:12:49;100984.77;;;23.30;77.25
63194;BME280;49289;51.670;5.624;2023-07-31T05:14:36;100982.74;;;23.23;78.11
63194;BME280;49289;51.670;5.624;2023-07-31T05:16:23;100987.30;;;23.35;77.35
63194;BME280;49289;51.670;5.624;2023-07-31T05:18:10;100982.64;;;23.65;76.12
63194;BME280;49289;51.670;5.624;2023-07-31T05:19:57;100980.16;;;23.38;77.56
63194;BME280;49289;51.670;5.624;2023-07-31T05:21:44;100988.07;;;23.04;78.41
63194;BME280;49289;51.670;5.624;2023-07-31T05:23:31;100982.85;;;23.17;78.13
63194;BME280;49289;51.670;5.624;2023-07-31T05:25:20;100974.61;;;23.31;78.34
63194;BME280;49289;51.670;5.624;2023-07-31T05:27:07;100972.31;;;23.27;79.10
63194;BME280;49289;51.670;5.624;2023-07-31T05:28:55;100978.20;;;23.03;80.46
63194;BME280;49289;51.670;5.624;2023-07-31T05:30:44;100978.31;;;23.18;80.22
63194;BME280;49289;51.670;5.624;2023-07-31T05:32:32;100986.23;;;22.72;83.27
63194;BME280;49289;51.670;5.624;2023-07-31T05:34:20;100976.97;;;22.88;82.76
63194;BME280;49289;51.670;5.624;2023-07-31T05:36:07;100974.23;;;22.65;84.03
63194;BME280;49289;51.670;5.624;2023-07-31T05:37:54;100971.87;;;22.68;83.73
63194;BME280;49289;51.670;5.624;2023-07-31T05:39:41;100965.06;;;23.00;83.12
63194;BME280;49289;51.670;5.624;2023-07-31T05:41:28;100965.53;;;22.84;83.19
63194;BME280;49289;51.670;5.624;2023-07-31T05:43:15;100957.44;;;22.91;82.96
63194;BME280;49289;51.670;5.624;2023-07-31T05:45:04;100975.77;;;22.92;83.55
63194;BME280;49289;51.670;5.624;2023-07-31T05:46:52;100952.23;;;22.50;85.14
63194;BME280;49289;51.670;5.624;2023-07-31T05:48:40;100967.22;;;22.92;85.16
63194;BME280;49289;51.670;5.624;2023-07-31T05:50:27;100968.17;;;22.56;87.19
63194;BME280;49289;51.670;5.624;2023-07-31T05:52:14;100964.34;;;22.53;86.83
63194;BME280;49289;51.670;5.624;2023-07-31T05:54:04;100936.32;;;22.68;85.51
63194;BME280;49289;51.670;5.624;2023-07-31T05:55:53;100956.05;;;22.81;86.54
63194;BME280;49289;51.670;5.624;2023-07-31T05:57:40;100961.28;;;22.59;88.21
63194;BME280;49289;51.670;5.624;2023-07-31T05:59:27;100914.52;;;22.99;84.90
63194;BME280;49289;51.670;5.624;2023-07-31T06:01:14;100945.03;;;22.84;86.48
63194;BME280;49289;51.670;5.624;2023-07-31T06:03:01;100947.03;;;22.77;86.58
63194;BME280;49289;51.670;5.624;2023-07-31T06:04:49;100955.18;;;22.48;88.77
63194;BME280;49289;51.670;5.624;2023-07-31T06:06:38;100953.67;;;22.59;89.09
63194;BME280;49289;51.670;5.624;2023-07-31T06:08:26;100948.94;;;22.06;91.43
63194;BME280;49289;51.670;5.624;2023-07-31T06:10:14;100953.03;;;22.21;91.91
63194;BME280;49289;51.670;5.624;2023-07-31T06:12:02;100924.11;;;22.26;91.54
63194;BME280;49289;51.670;5.624;2023-07-31T06:13:48;100948.52;;;22.25;91.76
63194;BME280;49289;51.670;5.624;2023-07-31T06:15:35;100920.66;;;22.12;91.87
63194;BME280;49289;51.670;5.624;2023-07-31T06:17:23;100946.73;;;22.58;89.47
63194;BME280;49289;51.670;5.624;2023-07-31T06:19:12;100950.52;;;22.21;92.00
63194;BME280;49289;51.670;5.624;2023-07-31T06:21:00;100944.40;;;22.42;91.18
63194;BME280;49289;51.670;5.624;2023-07-31T06:22:48;100921.65;;;22.30;90.72
63194;BME280;49289;51.670;5.624;2023-07-31T06:24:36;100944.83;;;21.71;94.57
63194;BME280;49289;51.670;5.624;2023-07-31T06:26:24;100948.75;;;21.98;93.03
63194;BME280;49289;51.670;5.624;2023-07-31T06:28:12;100940.52;;;22.51;92.00
63194;BME280;49289;51.670;5.624;2023-07-31T06:29:59;100943.42;;;22.68;89.55
63194;BME280;49289;51.670;5.624;2023-07-31T06:31:46;100914.68;;;21.93;93.55
63194;BME280;49289;51.670;5.624;2023-07-31T06:33:33;100939.13;;;22.46;93.30
63194;BME280;49289;51.670;5.624;2023-07-31T06:35:20;100938.39;;;22.40;93.42
63194;BME280;49289;51.670;5.624;2023-07-31T06:37:07;100936.02;;;22.49;93.21
63194;BME280;49289;51.670;5.624;2023-07-31T06:38:56;100933.70;;;22.10;92.83
63194;BME280;49289;51.670;5.624;2023-07-31T06:40:44;100949.34;;;22.27;93.11
63194;BME280;49289;51.670;5.624;2023-07-31T06:42:32;100935.80;;;22.28;93.55
63194;BME280;49289;51.670;5.624;2023-07-31T06:44:20;100933.98;;;21.93;96.36
63194;BME280;49289;51.670;5.624;2023-07-31T06:46:10;100933.06;;;22.37;93.90
63194;BME280;49289;51.670;5.624;2023-07-31T06:47:58;100919.98;;;22.71;91.91
63194;BME280;49289;51.670;5.624;2023-07-31T06:49:46;100921.35;;;22.53;91.53
63194;BME280;49289;51.670;5.624;2023-07-31T06:51:34;100917.44;;;22.75;91.64
63194;BME280;49289;51.670;5.624;2023-07-31T06:53:21;100910.83;;;22.65;92.46
63194;BME280;49289;51.670;5.624;2023-07-31T06:55:21;100917.69;;;22.24;95.01
63194;BME280;49289;51.670;5.624;2023-07-31T06:57:08;100908.50;;;22.34;93.22
63194;BME280;49289;51.670;5.624;2023-07-31T06:58:56;100907.26;;;22.48;93.79
63194;BME280;49289;51.670;5.624;2023-07-31T07:00:45;100873.97;;;22.80;90.76
63194;BME280;49289;51.670;5.624;2023-07-31T07:02:33;100898.71;;;23.34;88.48
63194;BME280;49289;51.670;5.624;2023-07-31T07:04:21;100873.08;;;22.92;88.67
63194;BME280;49289;51.670;5.624;2023-07-31T07:06:09;100870.84;;;23.25;87.40
63194;BME280;49289;51.670;5.624;2023-07-31T07:07:56;100902.04;;;23.29;88.20
63194;BME280;49289;51.670;5.624;2023-07-31T07:09:43;100897.43;;;22.92;90.32
63194;BME280;49289;51.670;5.624;2023-07-31T07:11:31;100897.92;;;22.93;89.54
63194;BME280;49289;51.670;5.624;2023-07-31T07:13:19;100902.56;;;22.63;92.72
63194;BME280;49289;51.670;5.624;2023-07-31T07:15:06;100894.94;;;22.74;92.56
63194;BME280;49289;51.670;5.624;2023-07-31T07:16:56;100893.44;;;22.50;94.20
63194;BME280;49289;51.670;5.624;2023-07-31T07:18:43;100891.33;;;22.66;91.94
63194;BME280;49289;51.670;5.624;2023-07-31T07:20:30;100891.02;;;22.35;94.53
63194;BME280;49289;51.670;5.624;2023-07-31T07:22:18;100893.47;;;22.56;92.52
63194;BME280;49289;51.670;5.624;2023-07-31T07:24:06;100898.45;;;22.65;93.03
63194;BME280;49289;51.670;5.624;2023-07-31T07:25:54;100891.31;;;23.12;91.32
63194;BME280;49289;51.670;5.624;2023-07-31T07:27:41;100884.97;;;22.83;91.89
63194;BME280;49289;51.670;5.624;2023-07-31T07:29:28;100884.80;;;22.76;92.05
63194;BME280;49289;51.670;5.624;2023-07-31T07:31:15;100884.28;;;22.68;92.55
63194;BME280;49289;51.670;5.624;2023-07-31T07:33:02;100887.64;;;22.76;92.84
63194;BME280;49289;51.670;5.624;2023-07-31T07:34:50;100891.98;;;22.55;93.94
63194;BME280;49289;51.670;5.624;2023-07-31T07:36:40;100892.05;;;22.30;94.31
63194;BME280;49289;51.670;5.624;2023-07-31T07:38:27;100882.13;;;22.66;93.90
63194;BME280;49289;51.670;5.624;2023-07-31T07:40:15;100896.04;;;22.35;95.77
63194;BME280;49289;51.670;5.624;2023-07-31T07:42:03;100892.52;;;22.51;95.55
63194;BME280;49289;51.670;5.624;2023-07-31T07:43:51;100897.25;;;22.43;94.00
63194;BME280;49289;51.670;5.624;2023-07-31T07:45:39;100857.74;;;22.70;93.46
63194;BME280;49289;51.670;5.624;2023-07-31T07:47:26;100887.91;;;22.74;94.00
63194;BME280;49289;51.670;5.624;2023-07-31T07:49:13;100892.55;;;22.48;95.64
63194;BME280;49289;51.670;5.624;2023-07-31T07:51:01;100891.64;;;22.30;96.27
63194;BME280;49289;51.670;5.624;2023-07-31T07:52:48;100898.02;;;22.37;95.50
63194;BME280;49289;51.670;5.624;2023-07-31T07:54:35;100883.16;;;22.71;94.41
63194;BME280;49289;51.670;5.624;2023-07-31T07:56:24;100897.56;;;22.57;94.18
63194;BME280;49289;51.670;5.624;2023-07-31T07:58:10;100889.16;;;21.99;98.01
63194;BME280;49289;51.670;5.624;2023-07-31T07:59:59;100891.41;;;22.38;96.00
63194;BME280;49289;51.670;5.624;2023-07-31T08:01:47;100882.88;;;22.76;93.78
63194;BME280;49289;51.670;5.624;2023-07-31T08:03:35;100889.84;;;22.24;96.31
63194;BME280;49289;51.670;5.624;2023-07-31T08:05:22;100883.85;;;22.46;96.10
63194;BME280;49289;51.670;5.624;2023-07-31T08:07:09;100893.67;;;22.26;93.69
63194;BME280;49289;51.670;5.624;2023-07-31T08:08:56;100882.44;;;22.84;93.85
63194;BME280;49289;51.670;5.624;2023-07-31T08:10:43;100878.25;;;22.69;93.86
63194;BME280;49289;51.670;5.624;2023-07-31T08:12:31;100879.89;;;22.63;95.08
63194;BME280;49289;51.670;5.624;2023-07-31T08:14:19;100877.23;;;22.86;92.90
63194;BME280;49289;51.670;5.624;2023-07-31T08:16:07;100872.78;;;22.88;91.78
63194;BME280;49289;51.670;5.624;2023-07-31T08:17:54;100874.63;;;22.88;91.51
63194;BME280;49289;51.670;5.624;2023-07-31T08:19:41;100873.80;;;22.79;92.32
63194;BME280;49289;51.670;5.624;2023-07-31T08:21:28;100880.91;;;22.23;95.68
63194;BME280;49289;51.670;5.624;2023-07-31T08:23:15;100880.38;;;22.74;93.50
63194;BME280;49289;51.670;5.624;2023-07-31T08:25:02;100887.93;;;22.34;96.00
63194;BME280;49289;51.670;5.624;2023-07-31T08:26:49;100877.17;;;22.68;94.24
63194;BME280;49289;51.670;5.624;2023-07-31T08:28:36;100881.95;;;22.29;96.47
63194;BME280;49289;51.670;5.624;2023-07-31T08:30:25;100874.27;;;22.62;95.39
63194;BME280;49289;51.670;5.624;2023-07-31T08:32:13;100870.33;;;22.91;93.32
63194;BME280;49289;51.670;5.624;2023-07-31T08:34:01;100878.98;;;22.80;93.66
63194;BME280;49289;51.670;5.624;2023-07-31T08:35:50;100853.86;;;22.53;93.61
63194;BME280;49289;51.670;5.624;2023-07-31T08:37:37;100879.53;;;22.28;96.86
63194;BME280;49289;51.670;5.624;2023-07-31T08:39:24;100853.48;;;23.00;92.74
63194;BME280;49289;51.670;5.624;2023-07-31T08:41:11;100883.00;;;22.18;95.83
63194;BME280;49289;51.670;5.624;2023-07-31T08:42:58;100849.59;;;22.40;95.25
63194;BME280;49289;51.670;5.624;2023-07-31T08:44:45;100882.27;;;22.30;97.34
63194;BME280;49289;51.670;5.624;2023-07-31T08:46:32;100879.41;;;22.17;99.15
63194;BME280;49289;51.670;5.624;2023-07-31T08:48:21;100845.45;;;22.24;96.52
63194;BME280;49289;51.670;5.624;2023-07-31T08:50:09;100865.01;;;22.81;95.50
63194;BME280;49289;51.670;5.624;2023-07-31T08:51:56;100877.88;;;22.50;96.78
63194;BME280;49289;51.670;5.624;2023-07-31T08:53:43;100875.70;;;22.88;94.27
63194;BME280;49289;51.670;5.624;2023-07-31T08:55:30;100851.03;;;22.87;94.16
63194;BME280;49289;51.670;5.624;2023-07-31T08:57:19;100876.30;;;22.95;92.31
63194;BME280;49289;51.670;5.624;2023-07-31T08:59:07;100881.11;;;22.41;96.84
63194;BME280;49289;51.670;5.624;2023-07-31T09:00:54;100878.67;;;22.31;97.63
63194;BME280;49289;51.670;5.624;2023-07-31T09:02:43;100874.14;;;22.94;92.74
63194;BME280;49289;51.670;5.624;2023-07-31T09:04:30;100855.06;;;22.09;95.73
63194;BME280;49289;51.670;5.624;2023-07-31T09:06:18;100872.73;;;22.56;96.03
63194;BME280;49289;51.670;5.624;2023-07-31T09:08:06;100877.48;;;22.34;96.00
63194;BME280;49289;51.670;5.624;2023-07-31T09:09:53;100875.41;;;22.42;96.45
63194;BME280;49289;51.670;5.624;2023-07-31T09:11:40;100879.29;;;22.27;96.93
63194;BME280;49289;51.670;5.624;2023-07-31T09:13:29;100871.27;;;22.61;95.67
63194;BME280;49289;51.670;5.624;2023-07-31T09:15:17;100871.22;;;22.93;93.50
63194;BME280;49289;51.670;5.624;2023-07-31T09:17:05;100844.54;;;22.92;92.48
63194;BME280;49289;51.670;5.624;2023-07-31T09:19:05;100877.86;;;22.28;96.47
63194;BME280;49289;51.670;5.624;2023-07-31T09:20:53;100868.62;;;22.58;96.07
63194;BME280;49289;51.670;5.624;2023-07-31T09:22:46;100860.11;;;23.27;91.99